sensor_id;sensor_type;location;lat;lon;timestamp;pressure;altitude;pressure_sealevel;temperature;humidity
77776;BME280;73554;43.328;6.668;2023-11-18T00:02:48;102000.97;;;14.63;100.00
77776;BME280;73554;43.328;6.668;2023-11-18T00:05:20;101975.97;;;14.37;100.00
77776;BME280;73554;43.328;6.668;2023-11-18T00:07:58;101989.25;;;14.29;100.00
77776;BME280;73554;43.328;6.668;2023-11-18T00:10:23;101980.50;;;14.27;100.00
77776;BME280;73554;43.328;6.668;2023-11-18T00:15:23;101978.84;;;14.21;100.00
77776;BME280;73554;43.328;6.668;2023-11-18T00:17:57;101989.28;;;14.27;100.00
77776;BME280;73554;43.328;6.668;2023-11-18T00:25:25;102006.88;;;14.29;100.00
77776;BME280;73554;43.328;6.668;2023-11-18T00:27:51;101991.25;;;14.16;100.00
77776;BME280;73554;43.328;6.668;2023-11-18T00:32:41;101991.97;;;14.24;100.00
77776;BME280;73554;43.328;6.668;2023-11-18T00:35:29;101996.84;;;13.97;100.00
77776;BME280;73554;43.328;6.668;2023-11-18T00:38:01;101995.22;;;13.90;100.00
77776;BME280;73554;43.328;6.668;2023-11-18T00:40:45;101996.84;;;13.98;100.00
77776;BME280;73554;43.328;6.668;2023-11-18T00:45:41;101982.88;;;13.92;100.00
77776;BME280;73554;43.328;6.668;2023-11-18T00:50:44;101998.66;;;13.95;100.00
77776;BME280;73554;43.328;6.668;2023-11-18T00:53:12;101993.84;;;14.19;100.00
77776;BME280;73554;43.328;6.668;2023-11-18T00:55:50;101987.78;;;14.14;100.00
77776;BME280;73554;43.328;6.668;2023-11-18T00:58:15;102001.09;;;14.05;100.00
77776;BME280;73554;43.328;6.668;2023-11-18T01:00:47;102021.41;;;14.00;100.00
77776;BME280;73554;43.328;6.668;2023-11-18T01:05:38;101994.94;;;14.05;100.00
77776;BME280;73554;43.328;6.668;2023-11-18T01:10:40;102018.16;;;13.83;100.00
77776;BME280;73554;43.328;6.668;2023-11-18T01:13:16;102001.47;;;13.84;100.00
77776;BME280;73554;43.328;6.668;2023-11-18T01:15:59;102003.13;;;13.90;100.00
77776;BME280;73554;43.328;6.668;2023-11-18T01:18:24;102017.97;;;13.95;100.00
77776;BME280;73554;43.328;6.668;2023-11-18T01:20:55;101998.69;;;13.92;100.00
77776;BME280;73554;43.328;6.668;2023-11-18T01:25:54;102011.72;;;14.01;100.00
77776;BME280;73554;43.328;6.668;2023-11-18T01:36:14;102027.94;;;13.77;100.00
77776;BME280;73554;43.328;6.668;2023-11-18T01:38:51;102016.25;;;13.93;100.00
77776;BME280;73554;43.328;6.668;2023-11-18T01:41:22;102014.38;;;14.01;100.00
77776;BME280;73554;43.328;6.668;2023-11-18T01:43:54;102005.63;;;13.97;100.00
77776;BME280;73554;43.328;6.668;2023-11-18T01:46:27;102013.53;;;13.97;100.00
77776;BME280;73554;43.328;6.668;2023-11-18T01:49:19;102008.50;;;13.84;100.00
77776;BME280;73554;43.328;6.668;2023-11-18T01:51:52;102014.00;;;13.69;100.00
77776;BME280;73554;43.328;6.668;2023-11-18T01:54:17;102011.91;;;13.90;100.00
77776;BME280;73554;43.328;6.668;2023-11-18T01:59:18;102022.66;;;13.75;100.00
77776;BME280;73554;43.328;6.668;2023-11-18T02:06:56;102021.13;;;13.62;100.00
77776;BME280;73554;43.328;6.668;2023-11-18T02:09:26;102022.72;;;13.74;100.00
77776;BME280;73554;43.328;6.668;2023-11-18T02:12:10;102027.97;;;13.74;100.00
77776;BME280;73554;43.328;6.668;2023-11-18T02:14:50;102022.88;;;13.61;100.00
77776;BME280;73554;43.328;6.668;2023-11-18T02:17:24;102026.44;;;13.59;100.00
77776;BME280;73554;43.328;6.668;2023-11-18T02:19:53;102022.00;;;13.62;100.00
77776;BME280;73554;43.328;6.668;2023-11-18T02:29:51;102006.19;;;13.61;100.00
77776;BME280;73554;43.328;6.668;2023-11-18T02:35:38;101984.22;;;13.62;100.00
77776;BME280;73554;43.328;6.668;2023-11-18T02:43:10;102015.25;;;13.43;100.00
77776;BME280;73554;43.328;6.668;2023-11-18T02:45:39;101994.72;;;13.63;100.00
77776;BME280;73554;43.328;6.668;2023-11-18T02:48:05;101991.34;;;13.55;100.00
77776;BME280;73554;43.328;6.668;2023-11-18T02:50:34;102008.75;;;13.69;100.00
77776;BME280;73554;43.328;6.668;2023-11-18T02:53:01;101996.09;;;13.89;100.00
77776;BME280;73554;43.328;6.668;2023-11-18T02:55:38;101994.81;;;13.60;100.00
77776;BME280;73554;43.328;6.668;2023-11-18T02:58:10;102017.59;;;13.63;100.00
77776;BME280;73554;43.328;6.668;2023-11-18T03:03:13;102008.91;;;13.56;100.00
77776;BME280;73554;43.328;6.668;2023-11-18T03:05:45;102028.91;;;13.71;100.00
77776;BME280;73554;43.328;6.668;2023-11-18T03:10:45;102003.75;;;13.47;100.00
77776;BME280;73554;43.328;6.668;2023-11-18T03:13:25;102020.63;;;13.36;100.00
77776;BME280;73554;43.328;6.668;2023-11-18T03:15:56;102002.03;;;13.46;100.00
77776;BME280;73554;43.328;6.668;2023-11-18T03:18:35;102001.19;;;13.43;100.00
77776;BME280;73554;43.328;6.668;2023-11-18T03:21:20;101995.00;;;13.45;100.00
77776;BME280;73554;43.328;6.668;2023-11-18T03:23:46;102025.72;;;13.48;100.00
77776;BME280;73554;43.328;6.668;2023-11-18T03:26:11;102001.03;;;13.55;100.00
77776;BME280;73554;43.328;6.668;2023-11-18T03:31:11;102037.22;;;13.39;100.00
77776;BME280;73554;43.328;6.668;2023-11-18T03:36:14;102013.53;;;13.41;100.00
77776;BME280;73554;43.328;6.668;2023-11-18T03:43:40;102010.19;;;13.25;100.00
77776;BME280;73554;43.328;6.668;2023-11-18T03:48:45;102034.56;;;13.44;100.00
77776;BME280;73554;43.328;6.668;2023-11-18T04:01:26;102068.03;;;13.36;100.00
77776;BME280;73554;43.328;6.668;2023-11-18T04:09:16;102014.53;;;13.90;100.00
77776;BME280;73554;43.328;6.668;2023-11-18T04:11:48;102029.41;;;13.94;100.00
77776;BME280;73554;43.328;6.668;2023-11-18T04:29:27;102020.25;;;14.16;100.00
77776;BME280;73554;43.328;6.668;2023-11-18T04:34:18;102002.25;;;14.41;100.00
77776;BME280;73554;43.328;6.668;2023-11-18T04:36:50;102002.78;;;14.61;100.00
77776;BME280;73554;43.328;6.668;2023-11-18T04:39:23;102010.75;;;14.58;100.00
77776;BME280;73554;43.328;6.668;2023-11-18T04:41:54;101998.50;;;14.54;100.00
77776;BME280;73554;43.328;6.668;2023-11-18T04:44:23;102016.59;;;14.23;100.00
77776;BME280;73554;43.328;6.668;2023-11-18T04:46:54;102046.75;;;14.09;100.00
77776;BME280;73554;43.328;6.668;2023-11-18T04:51:58;102020.56;;;13.98;100.00
77776;BME280;73554;43.328;6.668;2023-11-18T04:54:29;102035.72;;;13.84;100.00
77776;BME280;73554;43.328;6.668;2023-11-18T04:57:01;102031.63;;;13.65;100.00
77776;BME280;73554;43.328;6.668;2023-11-18T05:04:29;102020.41;;;13.51;100.00
77776;BME280;73554;43.328;6.668;2023-11-18T05:06:54;102024.78;;;13.52;100.00
77776;BME280;73554;43.328;6.668;2023-11-18T05:29:32;102007.63;;;14.37;100.00
77776;BME280;73554;43.328;6.668;2023-11-18T05:34:28;102032.91;;;14.50;100.00
77776;BME280;73554;43.328;6.668;2023-11-18T05:37:05;102022.25;;;14.54;100.00
77776;BME280;73554;43.328;6.668;2023-11-18T05:42:09;102066.28;;;14.52;100.00
77776;BME280;73554;43.328;6.668;2023-11-18T05:44:41;102028.66;;;14.41;100.00
77776;BME280;73554;43.328;6.668;2023-11-18T05:47:12;102038.19;;;14.48;100.00
77776;BME280;73554;43.328;6.668;2023-11-18T06:04:51;102057.63;;;14.43;100.00
77776;BME280;73554;43.328;6.668;2023-11-18T06:19:52;102052.53;;;14.31;100.00
77776;BME280;73554;43.328;6.668;2023-11-18T06:24:52;102079.81;;;14.31;100.00
77776;BME280;73554;43.328;6.668;2023-11-18T06:34:52;102086.03;;;14.25;100.00
77776;BME280;73554;43.328;6.668;2023-11-18T06:47:34;102097.38;;;14.32;100.00
77776;BME280;73554;43.328;6.668;2023-11-18T06:55:05;102108.50;;;14.51;100.00
77776;BME280;73554;43.328;6.668;2023-11-18T07:07:37;102144.75;;;14.92;100.00
77776;BME280;73554;43.328;6.668;2023-11-18T07:10:11;102125.16;;;15.05;100.00
77776;BME280;73554;43.328;6.668;2023-11-18T07:12:40;102127.16;;;14.91;100.00
77776;BME280;73554;43.328;6.668;2023-11-18T07:20:03;102145.75;;;15.32;100.00
77776;BME280;73554;43.328;6.668;2023-11-18T07:32:45;102134.53;;;15.19;100.00
77776;BME280;73554;43.328;6.668;2023-11-18T09:32:36;102277.22;;;15.18;100.00
77776;BME280;73554;43.328;6.668;2023-11-18T11:18:05;102238.31;;;18.79;100.00
77776;BME280;73554;43.328;6.668;2023-11-18T11:20:42;102215.84;;;18.61;100.00
77776;BME280;73554;43.328;6.668;2023-11-18T11:28:42;102235.50;;;18.56;100.00
77776;BME280;73554;43.328;6.668;2023-11-18T11:31:23;102240.81;;;18.56;100.00
77776;BME280;73554;43.328;6.668;2023-11-18T11:33:58;102244.50;;;18.52;100.00
77776;BME280;73554;43.328;6.668;2023-11-18T11:36:30;102234.44;;;18.32;100.00
77776;BME280;73554;43.328;6.668;2023-11-18T11:38:59;102236.31;;;18.28;100.00
77776;BME280;73554;43.328;6.668;2023-11-18T11:41:28;102224.06;;;18.24;100.00
77776;BME280;73554;43.328;6.668;2023-11-18T11:43:54;102217.84;;;17.96;100.00
77776;BME280;73554;43.328;6.668;2023-11-18T11:46:21;102228.47;;;17.96;100.00
77776;BME280;73554;43.328;6.668;2023-11-18T11:48:50;102207.69;;;17.81;100.00
77776;BME280;73554;43.328;6.668;2023-11-18T11:51:32;102219.94;;;17.85;100.00
77776;BME280;73554;43.328;6.668;2023-11-18T11:54:09;102217.06;;;17.93;100.00
77776;BME280;73554;43.328;6.668;2023-11-18T11:56:46;102206.31;;;17.97;100.00
77776;BME280;73554;43.328;6.668;2023-11-18T11:59:16;102199.34;;;17.93;100.00
77776;BME280;73554;43.328;6.668;2023-11-18T12:01:42;102195.63;;;18.00;100.00
77776;BME280;73554;43.328;6.668;2023-11-18T12:04:14;102198.94;;;18.07;100.00
77776;BME280;73554;43.328;6.668;2023-11-18T12:06:47;102209.72;;;18.01;100.00
77776;BME280;73554;43.328;6.668;2023-11-18T12:09:16;102195.81;;;17.93;100.00
77776;BME280;73554;43.328;6.668;2023-11-18T12:11:48;102205.41;;;17.98;100.00
77776;BME280;73554;43.328;6.668;2023-11-18T12:14:17;102195.81;;;17.93;100.00
77776;BME280;73554;43.328;6.668;2023-11-18T12:17:04;102198.53;;;17.91;100.00
77776;BME280;73554;43.328;6.668;2023-11-18T12:19:39;102182.78;;;17.85;100.00
77776;BME280;73554;43.328;6.668;2023-11-18T12:33:03;102182.16;;;17.77;100.00
77776;BME280;73554;43.328;6.668;2023-11-18T12:41:04;102176.50;;;17.58;100.00
77776;BME280;73554;43.328;6.668;2023-11-18T12:46:52;102188.72;;;17.64;100.00
77776;BME280;73554;43.328;6.668;2023-11-18T12:49:19;102181.84;;;17.57;100.00
77776;BME280;73554;43.328;6.668;2023-11-18T12:51:50;102172.47;;;17.44;100.00
77776;BME280;73554;43.328;6.668;2023-11-18T12:54:16;102168.94;;;17.43;100.00
77776;BME280;73554;43.328;6.668;2023-11-18T12:56:44;102165.63;;;17.35;100.00
77776;BME280;73554;43.328;6.668;2023-11-18T12:59:14;102178.94;;;17.34;100.00
77776;BME280;73554;43.328;6.668;2023-11-18T13:01:43;102176.63;;;17.22;100.00
77776;BME280;73554;43.328;6.668;2023-11-18T13:04:17;102167.06;;;17.16;100.00
77776;BME280;73554;43.328;6.668;2023-11-18T13:06:43;102165.28;;;17.16;100.00
77776;BME280;73554;43.328;6.668;2023-11-18T13:09:08;102176.13;;;17.07;100.00
77776;BME280;73554;43.328;6.668;2023-11-18T13:11:36;102163.25;;;16.94;100.00
77776;BME280;73554;43.328;6.668;2023-11-18T13:14:03;102177.16;;;17.02;100.00
77776;BME280;73554;43.328;6.668;2023-11-18T13:16:29;102168.44;;;16.97;100.00
77776;BME280;73554;43.328;6.668;2023-11-18T13:18:54;102165.09;;;16.90;100.00
77776;BME280;73554;43.328;6.668;2023-11-18T13:21:21;102165.84;;;16.95;100.00
77776;BME280;73554;43.328;6.668;2023-11-18T13:23:51;102163.47;;;16.85;100.00
77776;BME280;73554;43.328;6.668;2023-11-18T13:26:19;102155.75;;;16.77;100.00
77776;BME280;73554;43.328;6.668;2023-11-18T13:28:46;102152.31;;;16.72;100.00
77776;BME280;73554;43.328;6.668;2023-11-18T13:31:12;102155.13;;;16.66;100.00
77776;BME280;73554;43.328;6.668;2023-11-18T13:33:48;102140.28;;;16.59;100.00
77776;BME280;73554;43.328;6.668;2023-11-18T13:36:23;102142.88;;;16.62;100.00
77776;BME280;73554;43.328;6.668;2023-11-18T13:38:50;102127.03;;;16.61;100.00
77776;BME280;73554;43.328;6.668;2023-11-18T13:41:30;102116.44;;;16.61;100.00
77776;BME280;73554;43.328;6.668;2023-11-18T13:43:57;102127.81;;;16.64;100.00
77776;BME280;73554;43.328;6.668;2023-11-18T13:46:24;102093.56;;;16.58;100.00
77776;BME280;73554;43.328;6.668;2023-11-18T13:48:50;102109.13;;;16.70;100.00
77776;BME280;73554;43.328;6.668;2023-11-18T13:51:18;102088.09;;;16.64;100.00
77776;BME280;73554;43.328;6.668;2023-11-18T13:53:45;102097.13;;;16.57;100.00
77776;BME280;73554;43.328;6.668;2023-11-18T13:56:14;102088.75;;;16.37;100.00
77776;BME280;73554;43.328;6.668;2023-11-18T13:58:42;102086.19;;;16.34;100.00
77776;BME280;73554;43.328;6.668;2023-11-18T14:01:11;102070.28;;;16.35;100.00
77776;BME280;73554;43.328;6.668;2023-11-18T14:03:38;102065.97;;;16.31;100.00
77776;BME280;73554;43.328;6.668;2023-11-18T14:06:08;102069.53;;;16.30;100.00
77776;BME280;73554;43.328;6.668;2023-11-18T14:08:45;102079.13;;;16.34;100.00
77776;BME280;73554;43.328;6.668;2023-11-18T14:11:11;102070.41;;;16.31;100.00
77776;BME280;73554;43.328;6.668;2023-11-18T14:13:36;102086.13;;;16.37;100.00
77776;BME280;73554;43.328;6.668;2023-11-18T14:16:03;102067.03;;;16.24;100.00
77776;BME280;73554;43.328;6.668;2023-11-18T14:18:29;102064.44;;;16.23;100.00
77776;BME280;73554;43.328;6.668;2023-11-18T14:20:55;102059.16;;;16.23;100.00
77776;BME280;73554;43.328;6.668;2023-11-18T14:23:22;102056.59;;;16.18;100.00
77776;BME280;73554;43.328;6.668;2023-11-18T14:25:48;102054.88;;;16.17;100.00
77776;BME280;73554;43.328;6.668;2023-11-18T14:28:14;102039.78;;;16.21;100.00
77776;BME280;73554;43.328;6.668;2023-11-18T14:30:40;102008.28;;;16.12;100.00
77776;BME280;73554;43.328;6.668;2023-11-18T14:33:06;102016.09;;;16.16;100.00
77776;BME280;73554;43.328;6.668;2023-11-18T14:35:35;102012.50;;;16.19;100.00
77776;BME280;73554;43.328;6.668;2023-11-18T14:38:01;102015.97;;;16.21;100.00
77776;BME280;73554;43.328;6.668;2023-11-18T14:40:27;102016.81;;;16.23;100.00
77776;BME280;73554;43.328;6.668;2023-11-18T14:42:54;101985.25;;;16.15;100.00
77776;BME280;73554;43.328;6.668;2023-11-18T14:45:20;101991.38;;;16.17;100.00
77776;BME280;73554;43.328;6.668;2023-11-18T14:47:45;101969.69;;;16.03;100.00
77776;BME280;73554;43.328;6.668;2023-11-18T14:50:13;101971.41;;;16.04;100.00
77776;BME280;73554;43.328;6.668;2023-11-18T14:52:46;102000.75;;;15.95;100.00
77776;BME280;73554;43.328;6.668;2023-11-18T14:55:14;101968.09;;;15.96;100.00
77776;BME280;73554;43.328;6.668;2023-11-18T14:57:43;102003.34;;;15.96;100.00
77776;BME280;73554;43.328;6.668;2023-11-18T15:00:12;101998.66;;;16.08;100.00
77776;BME280;73554;43.328;6.668;2023-11-18T15:02:49;102007.53;;;16.05;100.00
77776;BME280;73554;43.328;6.668;2023-11-18T15:05:16;101984.03;;;15.93;100.00
77776;BME280;73554;43.328;6.668;2023-11-18T15:07:48;102010.47;;;15.94;100.00
77776;BME280;73554;43.328;6.668;2023-11-18T15:10:18;102002.59;;;15.91;100.00
77776;BME280;73554;43.328;6.668;2023-11-18T15:12:46;101989.44;;;15.90;100.00
77776;BME280;73554;43.328;6.668;2023-11-18T15:15:12;101994.81;;;15.85;100.00
77776;BME280;73554;43.328;6.668;2023-11-18T15:17:45;101983.19;;;15.92;100.00
77776;BME280;73554;43.328;6.668;2023-11-18T15:20:11;101956.06;;;15.84;100.00
77776;BME280;73554;43.328;6.668;2023-11-18T15:22:41;101961.31;;;15.86;100.00
77776;BME280;73554;43.328;6.668;2023-11-18T15:25:08;101959.34;;;15.94;100.00
77776;BME280;73554;43.328;6.668;2023-11-18T15:27:41;101936.59;;;15.87;100.00
77776;BME280;73554;43.328;6.668;2023-11-18T15:30:08;101934.88;;;15.86;100.00
77776;BME280;73554;43.328;6.668;2023-11-18T15:32:38;101935.34;;;16.01;100.00
77776;BME280;73554;43.328;6.668;2023-11-18T15:35:04;101929.88;;;16.08;100.00
77776;BME280;73554;43.328;6.668;2023-11-18T15:37:34;101946.56;;;16.10;100.00
77776;BME280;73554;43.328;6.668;2023-11-18T15:40:00;101948.03;;;16.23;100.00
77776;BME280;73554;43.328;6.668;2023-11-18T15:42:34;101933.25;;;16.14;100.00
77776;BME280;73554;43.328;6.668;2023-11-18T15:45:02;101938.28;;;16.23;100.00
77776;BME280;73554;43.328;6.668;2023-11-18T15:47:27;101944.41;;;16.25;100.00
77776;BME280;73554;43.328;6.668;2023-11-18T15:49:53;101937.53;;;16.18;100.00
77776;BME280;73554;43.328;6.668;2023-11-18T15:52:18;101954.28;;;16.19;100.00
77776;BME280;73554;43.328;6.668;2023-11-18T15:54:43;101946.13;;;16.26;100.00
77776;BME280;73554;43.328;6.668;2023-11-18T15:57:09;101953.03;;;16.33;100.00
77776;BME280;73554;43.328;6.668;2023-11-18T15:59:34;101965.91;;;16.45;100.00
77776;BME280;73554;43.328;6.668;2023-11-18T16:02:00;101953.72;;;16.40;100.00
77776;BME280;73554;43.328;6.668;2023-11-18T16:04:25;101956.34;;;16.40;100.00
77776;BME280;73554;43.328;6.668;2023-11-18T16:06:51;101944.94;;;16.38;100.00
77776;BME280;73554;43.328;6.668;2023-11-18T16:09:16;101955.47;;;16.41;100.00
77776;BME280;73554;43.328;6.668;2023-11-18T16:11:42;101960.81;;;16.38;100.00
77776;BME280;73554;43.328;6.668;2023-11-18T16:14:07;101958.19;;;16.38;100.00
77776;BME280;73554;43.328;6.668;2023-11-18T16:16:33;101964.38;;;16.37;100.00
77776;BME280;73554;43.328;6.668;2023-11-18T16:18:59;101967.78;;;16.42;100.00
77776;BME280;73554;43.328;6.668;2023-11-18T16:21:25;101955.75;;;16.30;100.00
77776;BME280;73554;43.328;6.668;2023-11-18T16:23:50;101949.72;;;16.25;100.00
77776;BME280;73554;43.328;6.668;2023-11-18T16:26:17;101936.66;;;16.18;100.00
77776;BME280;73554;43.328;6.668;2023-11-18T16:28:43;101933.25;;;16.14;100.00
77776;BME280;73554;43.328;6.668;2023-11-18T16:31:09;101952.38;;;16.24;100.00
77776;BME280;73554;43.328;6.668;2023-11-18T16:33:34;101925.25;;;16.16;100.00
77776;BME280;73554;43.328;6.668;2023-11-18T16:36:00;101926.00;;;16.21;100.00
77776;BME280;73554;43.328;6.668;2023-11-18T16:40:57;101913.03;;;16.12;100.00
77776;BME280;73554;43.328;6.668;2023-11-18T16:43:23;101909.44;;;16.14;100.00
77776;BME280;73554;43.328;6.668;2023-11-18T16:45:48;101920.84;;;16.16;100.00
77776;BME280;73554;43.328;6.668;2023-11-18T16:48:14;101912.25;;;16.07;100.00
77776;BME280;73554;43.328;6.668;2023-11-18T16:50:39;101920.19;;;16.08;100.00
77776;BME280;73554;43.328;6.668;2023-11-18T16:53:05;101900.22;;;15.96;100.00
77776;BME280;73554;43.328;6.668;2023-11-18T16:55:31;101914.00;;;16.08;100.00
77776;BME280;73554;43.328;6.668;2023-11-18T16:57:59;101898.34;;;16.00;100.00
77776;BME280;73554;43.328;6.668;2023-11-18T17:00:25;101905.19;;;16.09;100.00
77776;BME280;73554;43.328;6.668;2023-11-18T17:02:53;101904.34;;;16.07;100.00
77776;BME280;73554;43.328;6.668;2023-11-18T17:05:23;101898.28;;;16.03;100.00
77776;BME280;73554;43.328;6.668;2023-11-18T17:07:49;101897.41;;;16.02;100.00
77776;BME280;73554;43.328;6.668;2023-11-18T17:10:14;101902.53;;;16.09;100.00
77776;BME280;73554;43.328;6.668;2023-11-18T17:12:42;101899.41;;;15.93;100.00
77776;BME280;73554;43.328;6.668;2023-11-18T17:15:10;101906.28;;;16.00;100.00
77776;BME280;73554;43.328;6.668;2023-11-18T17:17:45;101917.66;;;16.04;100.00
77776;BME280;73554;43.328;6.668;2023-11-18T17:20:12;101886.38;;;15.85;100.00
77776;BME280;73554;43.328;6.668;2023-11-18T17:22:39;101898.56;;;15.92;100.00
77776;BME280;73554;43.328;6.668;2023-11-18T17:25:12;101891.59;;;15.88;100.00
77776;BME280;73554;43.328;6.668;2023-11-18T17:27:41;101897.03;;;15.82;100.00
77776;BME280;73554;43.328;6.668;2023-11-18T17:30:08;101895.13;;;15.89;100.00
77776;BME280;73554;43.328;6.668;2023-11-18T17:32:40;101895.13;;;15.89;100.00
77776;BME280;73554;43.328;6.668;2023-11-18T17:35:07;101892.44;;;15.90;100.00
77776;BME280;73554;43.328;6.668;2023-11-18T17:37:35;101896.75;;;15.93;100.00
77776;BME280;73554;43.328;6.668;2023-11-18T17:40:00;101870.59;;;15.82;100.00
77776;BME280;73554;43.328;6.668;2023-11-18T17:42:26;101863.00;;;15.70;100.00
77776;BME280;73554;43.328;6.668;2023-11-18T17:44:51;101872.66;;;15.71;100.00
77776;BME280;73554;43.328;6.668;2023-11-18T17:47:17;101874.41;;;15.72;100.00
77776;BME280;73554;43.328;6.668;2023-11-18T17:49:42;101888.38;;;15.77;100.00
77776;BME280;73554;43.328;6.668;2023-11-18T17:52:08;101882.38;;;15.71;100.00
77776;BME280;73554;43.328;6.668;2023-11-18T17:54:35;101862.41;;;15.59;100.00
77776;BME280;73554;43.328;6.668;2023-11-18T17:57:00;101848.41;;;15.56;100.00
77776;BME280;73554;43.328;6.668;2023-11-18T17:59:25;101849.56;;;15.42;100.00
77776;BME280;73554;43.328;6.668;2023-11-18T18:01:51;101828.50;;;15.39;100.00
77776;BME280;73554;43.328;6.668;2023-11-18T18:04:19;101815.72;;;15.23;100.00
77776;BME280;73554;43.328;6.668;2023-11-18T18:06:44;101817.22;;;15.33;100.00
77776;BME280;73554;43.328;6.668;2023-11-18T18:09:09;101811.84;;;15.36;100.00
77776;BME280;73554;43.328;6.668;2023-11-18T18:11:35;101822.19;;;15.47;100.00
77776;BME280;73554;43.328;6.668;2023-11-18T18:14:00;101824.03;;;15.43;100.00
77776;BME280;73554;43.328;6.668;2023-11-18T18:16:26;101831.22;;;15.36;100.00
77776;BME280;73554;43.328;6.668;2023-11-18T18:18:51;101815.44;;;14.98;100.00
77776;BME280;73554;43.328;6.668;2023-11-18T18:21:17;101780.56;;;15.21;100.00
77776;BME280;73554;43.328;6.668;2023-11-18T18:23:42;101797.97;;;15.28;100.00
77776;BME280;73554;43.328;6.668;2023-11-18T18:26:07;101812.53;;;15.09;100.00
77776;BME280;73554;43.328;6.668;2023-11-18T18:28:33;101769.31;;;15.13;100.00
77776;BME280;73554;43.328;6.668;2023-11-18T18:30:58;101779.81;;;15.14;100.00
77776;BME280;73554;43.328;6.668;2023-11-18T18:33:23;101775.56;;;15.09;100.00
77776;BME280;73554;43.328;6.668;2023-11-18T18:35:50;101790.38;;;15.16;100.00
77776;BME280;73554;43.328;6.668;2023-11-18T18:38:15;101760.53;;;15.12;100.00
77776;BME280;73554;43.328;6.668;2023-11-18T18:40:40;101775.28;;;15.19;100.00
77776;BME280;73554;43.328;6.668;2023-11-18T18:43:06;101765.94;;;15.08;100.00
77776;BME280;73554;43.328;6.668;2023-11-18T18:45:32;101793.44;;;14.98;100.00
77776;BME280;73554;43.328;6.668;2023-11-18T18:47:58;101788.63;;;15.15;100.00
77776;BME280;73554;43.328;6.668;2023-11-18T18:50:25;101773.06;;;15.03;100.00
77776;BME280;73554;43.328;6.668;2023-11-18T18:52:50;101797.25;;;14.86;100.00
77776;BME280;73554;43.328;6.668;2023-11-18T18:55:16;101785.31;;;15.07;100.00
77776;BME280;73554;43.328;6.668;2023-11-18T18:57:41;101789.69;;;15.08;100.00
77776;BME280;73554;43.328;6.668;2023-11-18T19:00:08;101804.53;;;15.12;100.00
77776;BME280;73554;43.328;6.668;2023-11-18T19:02:37;101818.47;;;15.18;100.00
77776;BME280;73554;43.328;6.668;2023-11-18T19:05:03;101843.81;;;15.27;100.00
77776;BME280;73554;43.328;6.668;2023-11-18T19:07:29;101849.25;;;15.19;100.00
77776;BME280;73554;43.328;6.668;2023-11-18T19:09:57;101833.25;;;15.25;100.00
77776;BME280;73554;43.328;6.668;2023-11-18T19:12:22;101853.53;;;15.25;100.00
77776;BME280;73554;43.328;6.668;2023-11-18T19:14:48;101871.84;;;15.32;100.00
77776;BME280;73554;43.328;6.668;2023-11-18T19:17:14;101873.03;;;15.19;100.00
77776;BME280;73554;43.328;6.668;2023-11-18T19:19:39;101845.59;;;15.25;100.00
77776;BME280;73554;43.328;6.668;2023-11-18T19:22:04;101857.19;;;15.19;100.00
77776;BME280;73554;43.328;6.668;2023-11-18T19:24:32;101882.88;;;15.13;100.00
77776;BME280;73554;43.328;6.668;2023-11-18T19:26:57;101877.38;;;15.22;100.00
77776;BME280;73554;43.328;6.668;2023-11-18T19:29:22;101885.47;;;15.16;100.00
77776;BME280;73554;43.328;6.668;2023-11-18T19:31:48;101887.09;;;15.21;100.00
77776;BME280;73554;43.328;6.668;2023-11-18T19:34:13;101886.22;;;15.21;100.00
77776;BME280;73554;43.328;6.668;2023-11-18T19:36:39;101883.50;;;15.24;100.00
77776;BME280;73554;43.328;6.668;2023-11-18T19:39:04;101907.28;;;15.24;100.00
77776;BME280;73554;43.328;6.668;2023-11-18T19:41:32;101904.56;;;15.27;100.00
77776;BME280;73554;43.328;6.668;2023-11-18T19:43:57;101909.78;;;15.30;100.00
77776;BME280;73554;43.328;6.668;2023-11-18T19:46:23;101923.06;;;15.27;100.00
77776;BME280;73554;43.328;6.668;2023-11-18T19:48:49;101929.28;;;15.24;100.00
77776;BME280;73554;43.328;6.668;2023-11-18T19:51:15;101925.84;;;15.21;100.00
77776;BME280;73554;43.328;6.668;2023-11-18T19:53:41;101925.91;;;15.18;100.00
77776;BME280;73554;43.328;6.668;2023-11-18T19:56:07;101918.16;;;15.09;100.00
77776;BME280;73554;43.328;6.668;2023-11-18T19:58:34;101919.72;;;15.19;100.00
77776;BME280;73554;43.328;6.668;2023-11-18T20:01:00;101914.63;;;15.10;100.00
77776;BME280;73554;43.328;6.668;2023-11-18T20:03:28;101913.53;;;15.20;100.00
77776;BME280;73554;43.328;6.668;2023-11-18T20:05:54;101896.34;;;15.39;100.00
77776;BME280;73554;43.328;6.668;2023-11-18T20:08:19;101915.16;;;15.25;100.00
77776;BME280;73554;43.328;6.668;2023-11-18T20:10:45;101930.81;;;15.33;100.00
77776;BME280;73554;43.328;6.668;2023-11-18T20:13:12;101934.69;;;15.18;100.00
77776;BME280;73554;43.328;6.668;2023-11-18T20:15:37;101938.28;;;15.16;100.00
77776;BME280;73554;43.328;6.668;2023-11-18T20:18:03;101929.28;;;15.24;100.00
77776;BME280;73554;43.328;6.668;2023-11-18T20:20:32;101928.19;;;15.33;100.00
77776;BME280;73554;43.328;6.668;2023-11-18T20:22:57;101940.63;;;15.29;100.00
77776;BME280;73554;43.328;6.668;2023-11-18T20:25:23;101915.56;;;15.46;100.00
77776;BME280;73554;43.328;6.668;2023-11-18T20:27:48;101945.72;;;15.37;100.00
77776;BME280;73554;43.328;6.668;2023-11-18T20:30:14;101937.72;;;15.40;100.00
77776;BME280;73554;43.328;6.668;2023-11-18T20:32:40;101944.91;;;15.33;100.00